createdAt,value
2018-05-03T00:00:39.246Z,995.00
2018-05-03T00:01:40.068Z,994.99
2018-05-03T00:02:39.237Z,995.06
2018-05-03T00:03:39.252Z,995.06
2018-05-03T00:04:39.235Z,995.07
2018-05-03T00:05:39.238Z,995.10
2018-05-03T00:06:39.257Z,995.10
2018-05-03T00:07:39.251Z,995.09
2018-05-03T00:08:39.941Z,995.10
2018-05-03T00:09:39.382Z,995.05
2018-05-03T00:10:39.220Z,995.04
2018-05-03T00:11:39.247Z,995.03
2018-05-03T00:12:39.228Z,994.99
2018-05-03T00:13:39.239Z,994.99
2018-05-03T00:14:39.940Z,995.00
2018-05-03T00:15:39.225Z,994.88
2018-05-03T00:16:39.229Z,994.91
2018-05-03T00:17:39.231Z,994.89
2018-05-03T00:18:39.244Z,994.91
2018-05-03T00:19:39.277Z,994.89
2018-05-03T00:20:39.954Z,994.93
2018-05-03T00:21:40.002Z,994.96
2018-05-03T00:22:39.203Z,995.05
2018-05-03T00:23:39.958Z,995.08
2018-05-03T00:24:39.213Z,995.10
2018-05-03T00:25:39.211Z,995.13
2018-05-03T00:26:39.958Z,995.13
2018-05-03T00:27:39.216Z,995.15
2018-05-03T00:28:39.949Z,995.11
2018-05-03T00:29:39.193Z,995.07
2018-05-03T00:30:39.282Z,995.06
2018-05-03T00:31:39.271Z,995.04
2018-05-03T00:32:40.014Z,995.04
2018-05-03T00:33:39.203Z,995.01
2018-05-03T00:34:39.245Z,994.98
2018-05-03T00:35:39.186Z,994.99
2018-05-03T00:36:39.187Z,994.99
2018-05-03T00:37:39.180Z,994.99
2018-05-03T00:38:39.197Z,995.01
2018-05-03T00:39:39.223Z,995.00
2018-05-03T00:40:39.186Z,995.03
2018-05-03T00:41:39.185Z,995.04
2018-05-03T00:42:39.247Z,995.07
2018-05-03T00:43:39.967Z,995.16
2018-05-03T00:44:39.197Z,995.15
2018-05-03T00:45:39.240Z,995.14
2018-05-03T00:46:39.194Z,995.16
2018-05-03T00:47:39.169Z,995.17
2018-05-03T00:48:39.969Z,995.14
2018-05-03T00:49:39.186Z,995.17
2018-05-03T00:50:40.008Z,995.12
2018-05-03T00:51:40.495Z,995.13
2018-05-03T00:52:39.258Z,995.11
2018-05-03T00:53:39.151Z,995.13
2018-05-03T00:54:39.172Z,995.17
2018-05-03T00:55:39.155Z,995.14
2018-05-03T00:56:39.226Z,995.18
2018-05-03T00:57:40.447Z,995.17
2018-05-03T00:58:39.168Z,995.14
2018-05-03T00:59:39.157Z,995.13
2018-05-03T01:00:39.150Z,995.11
2018-05-03T01:01:39.203Z,995.13
2018-05-03T01:02:39.219Z,995.17
2018-05-03T01:03:39.157Z,995.15
2018-05-03T01:04:39.154Z,995.16
2018-05-03T01:05:39.237Z,995.20
2018-05-03T01:06:40.014Z,995.20
2018-05-03T01:07:39.141Z,995.18
2018-05-03T01:08:39.131Z,995.22
2018-05-03T01:09:39.144Z,995.25
2018-05-03T01:10:39.138Z,995.22
2018-05-03T01:11:41.463Z,995.21
2018-05-03T01:12:39.963Z,995.13
2018-05-03T01:13:39.160Z,995.08
2018-05-03T01:14:39.244Z,995.06
2018-05-03T01:15:39.956Z,995.02
2018-05-03T01:16:40.002Z,994.98
2018-05-03T01:17:39.171Z,994.93
2018-05-03T01:18:40.967Z,994.94
2018-05-03T01:19:39.150Z,994.91
2018-05-03T01:20:39.148Z,994.88
2018-05-03T01:21:39.112Z,994.81
2018-05-03T01:22:39.129Z,994.77
2018-05-03T01:23:39.955Z,994.72
2018-05-03T01:24:39.128Z,994.68
2018-05-03T01:25:39.161Z,994.62
2018-05-03T01:26:39.093Z,994.63
2018-05-03T01:27:39.961Z,994.69
2018-05-03T01:28:39.105Z,994.72
2018-05-03T01:29:39.187Z,994.71
2018-05-03T01:30:40.481Z,994.74
2018-05-03T01:31:41.030Z,994.73
2018-05-03T01:32:39.228Z,994.77
2018-05-03T01:33:39.226Z,994.81
2018-05-03T01:34:39.082Z,994.78
2018-05-03T01:35:39.075Z,994.76
2018-05-03T01:36:39.123Z,994.78
2018-05-03T01:37:39.959Z,994.77
2018-05-03T01:38:39.088Z,994.76
2018-05-03T01:39:39.087Z,994.75
2018-05-03T01:40:39.116Z,994.74
2018-05-03T01:41:39.977Z,994.70
2018-05-03T01:42:39.099Z,994.68
2018-05-03T01:43:39.095Z,994.61
2018-05-03T01:44:39.144Z,994.64
2018-05-03T01:45:39.126Z,994.66
2018-05-03T01:46:39.088Z,994.63
2018-05-03T01:47:39.061Z,994.65
2018-05-03T01:48:39.068Z,994.67
2018-05-03T01:49:39.069Z,994.69
2018-05-03T01:50:39.162Z,994.73
2018-05-03T01:51:40.016Z,994.73
2018-05-03T01:52:39.081Z,994.73
2018-05-03T01:53:39.123Z,994.75
2018-05-03T01:54:39.085Z,994.82
2018-05-03T01:55:39.085Z,994.85
2018-05-03T01:56:39.057Z,994.81
2018-05-03T01:57:39.061Z,994.80
2018-05-03T01:58:39.042Z,994.77
2018-05-03T01:59:39.040Z,994.75
2018-05-03T02:00:40.509Z,994.75
2018-05-03T02:01:39.135Z,994.75
2018-05-03T02:02:41.006Z,994.75
2018-05-03T02:03:39.056Z,994.73
2018-05-03T02:04:39.663Z,994.74
2018-05-03T02:05:39.068Z,994.67
2018-05-03T02:06:39.996Z,994.67
2018-05-03T02:07:39.040Z,994.63
2018-05-03T02:08:40.004Z,994.63
2018-05-03T02:09:39.042Z,994.66
2018-05-03T02:10:39.052Z,994.63
2018-05-03T02:11:39.047Z,994.60
2018-05-03T02:12:40.023Z,994.63
2018-05-03T02:13:39.116Z,994.67
2018-05-03T02:14:41.059Z,994.68
2018-05-03T02:15:39.053Z,994.72
2018-05-03T02:16:39.025Z,994.72
2018-05-03T02:17:39.016Z,994.73
2018-05-03T02:18:39.044Z,994.77
2018-05-03T02:19:39.056Z,994.80
2018-05-03T02:20:39.030Z,994.82
2018-05-03T02:21:39.964Z,994.78
2018-05-03T02:22:39.076Z,994.82
2018-05-03T02:23:39.003Z,994.78
2018-05-03T02:24:39.023Z,994.82
2018-05-03T02:25:38.996Z,994.87
2018-05-03T02:26:39.022Z,994.85
2018-05-03T02:27:39.992Z,994.92
2018-05-03T02:28:38.998Z,994.94
2018-05-03T02:29:39.087Z,994.91
2018-05-03T02:30:39.011Z,994.89
2018-05-03T02:31:39.005Z,994.87
2018-05-03T02:32:38.986Z,994.81
2018-05-03T02:33:40.019Z,994.77
2018-05-03T02:34:38.989Z,994.76
2018-05-03T02:35:39.012Z,994.76
2018-05-03T02:36:38.972Z,994.78
2018-05-03T02:37:38.973Z,994.85
2018-05-03T02:38:39.059Z,994.84
2018-05-03T02:39:38.986Z,994.79
2018-05-03T02:40:39.021Z,994.79
2018-05-03T02:41:38.983Z,994.80
2018-05-03T02:42:38.979Z,994.80
2018-05-03T02:43:39.495Z,994.81
2018-05-03T02:44:38.967Z,994.86
2018-05-03T02:45:38.973Z,994.85
2018-05-03T02:46:38.989Z,994.87
2018-05-03T02:47:39.039Z,994.87
2018-05-03T02:48:38.975Z,994.88
2018-05-03T02:49:38.987Z,994.90
2018-05-03T02:50:39.041Z,994.90
2018-05-03T02:51:39.007Z,994.94
2018-05-03T02:52:39.051Z,994.96
2018-05-03T02:53:38.960Z,994.90
2018-05-03T02:54:38.945Z,994.97
2018-05-03T02:55:38.986Z,994.97
2018-05-03T02:56:38.945Z,994.93
2018-05-03T02:57:38.959Z,994.98
2018-05-03T02:58:39.471Z,994.98
2018-05-03T02:59:38.953Z,994.96
2018-05-03T03:00:38.935Z,994.96
2018-05-03T03:01:38.934Z,994.96
2018-05-03T03:02:39.504Z,994.92
2018-05-03T03:03:39.036Z,994.93
2018-05-03T03:04:38.982Z,994.92
2018-05-03T03:05:39.479Z,994.89
2018-05-03T03:06:38.929Z,994.90
2018-05-03T03:07:38.924Z,994.90
2018-05-03T03:08:40.024Z,994.94
2018-05-03T03:09:38.973Z,994.98
2018-05-03T03:10:40.031Z,994.98
2018-05-03T03:11:38.989Z,994.99
2018-05-03T03:12:39.536Z,994.95
2018-05-03T03:13:38.927Z,995.01
2018-05-03T03:14:38.936Z,994.96
2018-05-03T03:15:39.518Z,994.94
2018-05-03T03:16:38.926Z,994.96
2018-05-03T03:17:38.982Z,994.94
2018-05-03T03:18:38.896Z,994.93
2018-05-03T03:19:40.028Z,994.96
2018-05-03T03:20:38.902Z,995.01
2018-05-03T03:21:40.024Z,995.04
2018-05-03T03:22:38.925Z,995.08
2018-05-03T03:23:38.904Z,995.12
2018-05-03T03:24:38.888Z,995.12
2018-05-03T03:25:38.889Z,995.14
2018-05-03T03:26:38.954Z,995.09
2018-05-03T03:27:38.894Z,995.17
2018-05-03T03:28:38.883Z,995.18
2018-05-03T03:29:38.877Z,995.20
2018-05-03T03:30:39.475Z,995.22
2018-05-03T03:31:38.884Z,995.22
2018-05-03T03:32:38.867Z,995.24
2018-05-03T03:33:38.894Z,995.18
2018-05-03T03:34:38.881Z,995.18
2018-05-03T03:35:38.867Z,995.21
2018-05-03T03:36:38.862Z,995.24
2018-05-03T03:37:38.863Z,995.26
2018-05-03T03:38:38.892Z,995.27
2018-05-03T03:39:38.870Z,995.25
2018-05-03T03:40:38.919Z,995.30
2018-05-03T03:41:38.857Z,995.28
2018-05-03T03:42:38.851Z,995.30
2018-05-03T03:43:39.647Z,995.30
2018-05-03T03:44:38.865Z,995.30
2018-05-03T03:45:38.846Z,995.30
2018-05-03T03:46:38.894Z,995.31
2018-05-03T03:47:38.865Z,995.32
2018-05-03T03:48:38.837Z,995.36
2018-05-03T03:49:38.843Z,995.39
2018-05-03T03:50:38.941Z,995.37
2018-05-03T03:51:39.488Z,995.38
2018-05-03T03:52:38.831Z,995.39
2018-05-03T03:53:38.831Z,995.42
2018-05-03T03:54:38.828Z,995.47
2018-05-03T03:55:38.912Z,995.51
2018-05-03T03:56:38.848Z,995.54
2018-05-03T03:57:39.532Z,995.54
2018-05-03T03:58:38.856Z,995.52
2018-05-03T03:59:38.829Z,995.54
2018-05-03T04:00:38.829Z,995.52
2018-05-03T04:01:38.818Z,995.53
2018-05-03T04:02:38.822Z,995.51
2018-05-03T04:03:38.833Z,995.50
2018-05-03T04:04:38.806Z,995.54
2018-05-03T04:05:38.812Z,995.52
2018-05-03T04:06:38.877Z,995.59
2018-05-03T04:07:39.248Z,995.59
2018-05-03T04:08:38.800Z,995.59
2018-05-03T04:09:39.577Z,995.65
2018-05-03T04:10:39.552Z,995.71
2018-05-03T04:11:38.858Z,995.72
2018-05-03T04:12:38.793Z,995.79
2018-05-03T04:13:38.782Z,995.78
2018-05-03T04:14:38.777Z,995.78
2018-05-03T04:15:38.778Z,995.81
2018-05-03T04:16:38.783Z,995.83
2018-05-03T04:17:38.804Z,995.83
2018-05-03T04:18:38.802Z,995.84
2018-05-03T04:19:38.872Z,995.85
2018-05-03T04:20:38.762Z,995.83
2018-05-03T04:21:38.805Z,995.85
2018-05-03T04:22:38.772Z,995.89
2018-05-03T04:23:38.762Z,995.83
2018-05-03T04:24:38.765Z,995.89
2018-05-03T04:25:38.747Z,995.92
2018-05-03T04:26:39.575Z,995.96
2018-05-03T04:27:38.852Z,995.93
2018-05-03T04:28:41.630Z,995.95
2018-05-03T04:29:38.758Z,995.98
2018-05-03T04:30:38.743Z,995.98
2018-05-03T04:31:38.750Z,996.02
2018-05-03T04:32:38.751Z,996.06
2018-05-03T04:33:38.732Z,996.03
2018-05-03T04:34:38.763Z,996.07
2018-05-03T04:35:38.731Z,996.05
2018-05-03T04:36:38.732Z,996.06
2018-05-03T04:37:38.736Z,996.04
2018-05-03T04:38:39.644Z,996.09
2018-05-03T04:39:38.714Z,996.09
2018-05-03T04:40:38.725Z,996.10
2018-05-03T04:41:38.732Z,996.10
2018-05-03T04:42:38.706Z,996.10
2018-05-03T04:43:38.797Z,996.11
2018-05-03T04:44:38.709Z,996.15
2018-05-03T04:45:38.703Z,996.19
2018-05-03T04:46:40.527Z,996.17
2018-05-03T04:47:38.700Z,996.21
2018-05-03T04:48:38.698Z,996.16
2018-05-03T04:49:38.700Z,996.18
2018-05-03T04:50:38.687Z,996.17
2018-05-03T04:51:39.547Z,996.18
2018-05-03T04:52:39.511Z,996.22
2018-05-03T04:53:38.702Z,996.24
2018-05-03T04:54:39.509Z,996.23
2018-05-03T04:55:38.680Z,996.21
2018-05-03T04:56:38.696Z,996.21
2018-05-03T04:57:38.679Z,996.22
2018-05-03T04:58:39.503Z,996.19
2018-05-03T04:59:39.557Z,996.22
2018-05-03T05:00:39.522Z,996.25
2018-05-03T05:01:38.671Z,996.25
2018-05-03T05:02:38.672Z,996.26
2018-05-03T05:03:38.672Z,996.34
2018-05-03T05:04:38.690Z,996.36
2018-05-03T05:05:38.655Z,996.39
2018-05-03T05:06:40.045Z,996.46
2018-05-03T05:07:38.656Z,996.48
2018-05-03T05:08:38.703Z,996.48
2018-05-03T05:09:39.558Z,996.50
2018-05-03T05:10:39.505Z,996.47
2018-05-03T05:11:38.700Z,996.45
2018-05-03T05:12:40.570Z,996.47
2018-05-03T05:13:39.668Z,996.46
2018-05-03T05:14:38.635Z,996.50
2018-05-03T05:15:38.638Z,996.53
2018-05-03T05:16:38.638Z,996.54
2018-05-03T05:17:39.558Z,996.54
2018-05-03T05:18:38.638Z,996.56
2018-05-03T05:19:39.525Z,996.55
2018-05-03T05:20:38.699Z,996.59
2018-05-03T05:21:38.642Z,996.57
2018-05-03T05:22:38.632Z,996.56
2018-05-03T05:23:39.554Z,996.54
2018-05-03T05:24:39.561Z,996.55
2018-05-03T05:25:38.634Z,996.51
2018-05-03T05:26:38.706Z,996.53
2018-05-03T05:27:38.651Z,996.49
2018-05-03T05:28:38.605Z,996.50
2018-05-03T05:29:38.611Z,996.50
2018-05-03T05:30:38.619Z,996.51
2018-05-03T05:31:38.694Z,996.53
2018-05-03T05:32:38.602Z,996.57
2018-05-03T05:33:39.507Z,996.56
2018-05-03T05:34:39.510Z,996.51
2018-05-03T05:35:38.875Z,996.51
2018-05-03T05:36:38.700Z,996.53
2018-05-03T05:37:38.612Z,996.50
2018-05-03T05:38:38.777Z,996.48
2018-05-03T05:39:38.604Z,996.47
2018-05-03T05:40:38.623Z,996.47
2018-05-03T05:41:38.607Z,996.47
2018-05-03T05:42:38.684Z,996.48
2018-05-03T05:43:38.582Z,996.50
2018-05-03T05:44:39.509Z,996.51
2018-05-03T05:45:38.590Z,996.48
2018-05-03T05:46:38.642Z,996.48
2018-05-03T05:47:38.603Z,996.48
2018-05-03T05:48:38.633Z,996.49
2018-05-03T05:49:38.707Z,996.46
2018-05-03T05:50:40.057Z,996.48
2018-05-03T05:51:38.669Z,996.47
2018-05-03T05:52:38.714Z,996.46
2018-05-03T05:53:38.649Z,996.52
2018-05-03T05:54:38.660Z,996.51
2018-05-03T05:55:39.556Z,996.54
2018-05-03T05:56:38.626Z,996.52
2018-05-03T05:57:38.672Z,996.55
2018-05-03T05:58:38.641Z,996.53
2018-05-03T05:59:38.611Z,996.54
2018-05-03T06:00:39.519Z,996.53
2018-05-03T06:01:38.647Z,996.51
2018-05-03T06:02:38.660Z,996.50
2018-05-03T06:03:38.634Z,996.46
2018-05-03T06:04:38.633Z,996.43
2018-05-03T06:05:38.655Z,996.48
2018-05-03T06:06:38.653Z,996.43
2018-05-03T06:07:39.508Z,996.45
2018-05-03T06:08:38.566Z,996.43
2018-05-03T06:09:38.638Z,996.43
2018-05-03T06:10:38.770Z,996.46
2018-05-03T06:11:38.645Z,996.52
2018-05-03T06:12:40.023Z,996.51
2018-05-03T06:13:39.531Z,996.48
2018-05-03T06:14:40.061Z,996.49
2018-05-03T06:15:40.054Z,996.53
2018-05-03T06:16:38.617Z,996.55
2018-05-03T06:17:38.634Z,996.59
2018-05-03T06:18:39.562Z,996.59
2018-05-03T06:19:40.043Z,996.63
2018-05-03T06:20:39.569Z,996.64
2018-05-03T06:21:39.562Z,996.58
2018-05-03T06:22:40.153Z,996.59
2018-05-03T06:23:38.587Z,996.57
2018-05-03T06:24:38.658Z,996.58
2018-05-03T06:25:39.525Z,996.59
2018-05-03T06:26:40.064Z,996.60
2018-05-03T06:27:40.064Z,996.61
2018-05-03T06:28:39.516Z,996.61
2018-05-03T06:29:42.038Z,996.61
2018-05-03T06:30:40.021Z,996.62
2018-05-03T06:33:11.077Z,996.64
